sensor_id;sensor_type;location;lat;lon;timestamp;P1;durP1;ratioP1;P2;durP2;ratioP2
42294;SDS011;27947;47.556;18.718;2023-04-30T00:01:54;13.60;;;8.30;;
42294;SDS011;27947;47.556;18.718;2023-04-30T00:04:20;12.30;;;8.25;;
42294;SDS011;27947;47.556;18.718;2023-04-30T00:06:45;14.43;;;8.25;;
42294;SDS011;27947;47.556;18.718;2023-04-30T00:09:11;14.23;;;8.43;;
42294;SDS011;27947;47.556;18.718;2023-04-30T00:11:36;11.90;;;7.68;;
42294;SDS011;27947;47.556;18.718;2023-04-30T00:14:01;13.57;;;7.88;;
42294;SDS011;27947;47.556;18.718;2023-04-30T00:16:27;14.70;;;7.75;;
42294;SDS011;27947;47.556;18.718;2023-04-30T00:18:52;14.10;;;7.80;;
42294;SDS011;27947;47.556;18.718;2023-04-30T00:21:17;10.73;;;6.93;;
42294;SDS011;27947;47.556;18.718;2023-04-30T00:23:43;15.50;;;7.97;;
42294;SDS011;27947;47.556;18.718;2023-04-30T00:26:08;14.02;;;7.85;;
42294;SDS011;27947;47.556;18.718;2023-04-30T00:28:35;11.65;;;7.45;;
42294;SDS011;27947;47.556;18.718;2023-04-30T00:31:00;10.43;;;6.50;;
42294;SDS011;27947;47.556;18.718;2023-04-30T00:33:26;10.73;;;6.95;;
42294;SDS011;27947;47.556;18.718;2023-04-30T00:35:51;13.60;;;8.10;;
42294;SDS011;27947;47.556;18.718;2023-04-30T00:38:17;14.77;;;8.27;;
42294;SDS011;27947;47.556;18.718;2023-04-30T00:40:42;16.27;;;9.25;;
42294;SDS011;27947;47.556;18.718;2023-04-30T00:43:08;15.32;;;9.75;;
42294;SDS011;27947;47.556;18.718;2023-04-30T00:45:33;12.50;;;8.57;;
42294;SDS011;27947;47.556;18.718;2023-04-30T00:47:58;11.38;;;8.70;;
42294;SDS011;27947;47.556;18.718;2023-04-30T00:50:24;16.60;;;9.63;;
42294;SDS011;27947;47.556;18.718;2023-04-30T00:52:50;11.43;;;8.27;;
42294;SDS011;27947;47.556;18.718;2023-04-30T00:55:15;15.10;;;9.55;;
42294;SDS011;27947;47.556;18.718;2023-04-30T00:57:41;13.38;;;9.82;;
42294;SDS011;27947;47.556;18.718;2023-04-30T01:00:06;13.95;;;9.60;;
42294;SDS011;27947;47.556;18.718;2023-04-30T01:02:38;13.25;;;9.00;;
42294;SDS011;27947;47.556;18.718;2023-04-30T01:05:03;16.08;;;9.10;;
42294;SDS011;27947;47.556;18.718;2023-04-30T01:07:29;14.30;;;8.93;;
42294;SDS011;27947;47.556;18.718;2023-04-30T01:09:55;14.10;;;9.63;;
42294;SDS011;27947;47.556;18.718;2023-04-30T01:12:25;14.13;;;9.82;;
42294;SDS011;27947;47.556;18.718;2023-04-30T01:19:54;15.30;;;10.25;;
42294;SDS011;27947;47.556;18.718;2023-04-30T01:30:09;15.40;;;10.70;;
42294;SDS011;27947;47.556;18.718;2023-04-30T01:32:34;15.95;;;10.05;;
42294;SDS011;27947;47.556;18.718;2023-04-30T01:35:00;13.50;;;9.95;;
42294;SDS011;27947;47.556;18.718;2023-04-30T01:39:57;14.43;;;10.00;;
42294;SDS011;27947;47.556;18.718;2023-04-30T01:42:29;14.77;;;10.25;;
42294;SDS011;27947;47.556;18.718;2023-04-30T01:52:58;16.65;;;10.40;;
42294;SDS011;27947;47.556;18.718;2023-04-30T01:55:57;13.35;;;10.55;;
42294;SDS011;27947;47.556;18.718;2023-04-30T01:58:16;16.02;;;10.45;;
42294;SDS011;27947;47.556;18.718;2023-04-30T02:00:41;17.38;;;9.88;;
42294;SDS011;27947;47.556;18.718;2023-04-30T02:03:07;16.17;;;10.60;;
42294;SDS011;27947;47.556;18.718;2023-04-30T02:05:32;16.85;;;10.90;;
42294;SDS011;27947;47.556;18.718;2023-04-30T02:07:58;14.40;;;10.05;;
42294;SDS011;27947;47.556;18.718;2023-04-30T02:10:25;18.90;;;9.93;;
42294;SDS011;27947;47.556;18.718;2023-04-30T02:12:51;16.98;;;10.48;;
42294;SDS011;27947;47.556;18.718;2023-04-30T02:15:16;14.25;;;10.45;;
42294;SDS011;27947;47.556;18.718;2023-04-30T02:17:42;15.52;;;9.77;;
42294;SDS011;27947;47.556;18.718;2023-04-30T02:20:07;16.55;;;11.10;;
42294;SDS011;27947;47.556;18.718;2023-04-30T02:22:33;13.73;;;10.43;;
42294;SDS011;27947;47.556;18.718;2023-04-30T02:24:59;17.40;;;10.95;;
42294;SDS011;27947;47.556;18.718;2023-04-30T02:27:25;15.23;;;10.80;;
42294;SDS011;27947;47.556;18.718;2023-04-30T02:29:51;18.95;;;10.75;;
42294;SDS011;27947;47.556;18.718;2023-04-30T02:32:17;13.00;;;9.95;;
42294;SDS011;27947;47.556;18.718;2023-04-30T02:34:43;12.45;;;9.95;;
42294;SDS011;27947;47.556;18.718;2023-04-30T02:37:08;14.27;;;10.32;;
42294;SDS011;27947;47.556;18.718;2023-04-30T02:39:33;13.32;;;10.23;;
42294;SDS011;27947;47.556;18.718;2023-04-30T02:41:59;14.65;;;10.35;;
42294;SDS011;27947;47.556;18.718;2023-04-30T02:44:25;15.07;;;10.40;;
42294;SDS011;27947;47.556;18.718;2023-04-30T02:46:50;16.02;;;9.80;;
42294;SDS011;27947;47.556;18.718;2023-04-30T02:49:16;14.20;;;9.95;;
42294;SDS011;27947;47.556;18.718;2023-04-30T02:51:41;16.90;;;10.52;;
42294;SDS011;27947;47.556;18.718;2023-04-30T02:54:07;13.07;;;10.13;;
42294;SDS011;27947;47.556;18.718;2023-04-30T02:56:32;14.18;;;10.30;;
42294;SDS011;27947;47.556;18.718;2023-04-30T02:58:58;16.23;;;10.55;;
42294;SDS011;27947;47.556;18.718;2023-04-30T03:01:24;14.30;;;10.38;;
42294;SDS011;27947;47.556;18.718;2023-04-30T03:03:49;14.77;;;10.02;;
42294;SDS011;27947;47.556;18.718;2023-04-30T03:06:14;17.13;;;9.60;;
42294;SDS011;27947;47.556;18.718;2023-04-30T03:08:40;15.00;;;9.88;;
42294;SDS011;27947;47.556;18.718;2023-04-30T03:11:05;14.05;;;9.77;;
42294;SDS011;27947;47.556;18.718;2023-04-30T03:13:30;13.05;;;9.02;;
42294;SDS011;27947;47.556;18.718;2023-04-30T03:16:02;13.07;;;9.25;;
42294;SDS011;27947;47.556;18.718;2023-04-30T03:18:31;14.30;;;9.70;;
42294;SDS011;27947;47.556;18.718;2023-04-30T03:20:56;14.63;;;9.63;;
42294;SDS011;27947;47.556;18.718;2023-04-30T03:23:22;15.73;;;10.10;;
42294;SDS011;27947;47.556;18.718;2023-04-30T03:25:47;14.88;;;9.90;;
42294;SDS011;27947;47.556;18.718;2023-04-30T03:28:13;16.52;;;11.48;;
42294;SDS011;27947;47.556;18.718;2023-04-30T03:30:39;19.33;;;12.00;;
42294;SDS011;27947;47.556;18.718;2023-04-30T03:33:05;15.52;;;11.93;;
42294;SDS011;27947;47.556;18.718;2023-04-30T03:35:33;16.73;;;11.88;;
42294;SDS011;27947;47.556;18.718;2023-04-30T03:37:59;17.80;;;11.98;;
42294;SDS011;27947;47.556;18.718;2023-04-30T03:40:24;17.58;;;11.98;;
42294;SDS011;27947;47.556;18.718;2023-04-30T03:42:50;21.13;;;13.73;;
42294;SDS011;27947;47.556;18.718;2023-04-30T03:45:15;17.00;;;12.82;;
42294;SDS011;27947;47.556;18.718;2023-04-30T03:47:41;19.27;;;13.32;;
42294;SDS011;27947;47.556;18.718;2023-04-30T03:50:07;19.35;;;14.65;;
42294;SDS011;27947;47.556;18.718;2023-04-30T03:52:33;20.42;;;14.95;;
42294;SDS011;27947;47.556;18.718;2023-04-30T03:54:58;20.25;;;14.38;;
42294;SDS011;27947;47.556;18.718;2023-04-30T03:57:24;18.45;;;15.18;;
42294;SDS011;27947;47.556;18.718;2023-04-30T03:59:49;19.05;;;15.20;;
42294;SDS011;27947;47.556;18.718;2023-04-30T04:02:16;23.67;;;15.50;;
42294;SDS011;27947;47.556;18.718;2023-04-30T04:04:41;19.15;;;15.50;;
42294;SDS011;27947;47.556;18.718;2023-04-30T04:07:07;21.98;;;16.77;;
42294;SDS011;27947;47.556;18.718;2023-04-30T04:09:34;22.42;;;17.15;;
42294;SDS011;27947;47.556;18.718;2023-04-30T04:11:59;20.40;;;15.73;;
42294;SDS011;27947;47.556;18.718;2023-04-30T04:14:25;20.85;;;15.75;;
42294;SDS011;27947;47.556;18.718;2023-04-30T04:16:51;21.75;;;15.57;;
42294;SDS011;27947;47.556;18.718;2023-04-30T04:19:16;18.55;;;15.38;;
42294;SDS011;27947;47.556;18.718;2023-04-30T04:21:42;19.83;;;15.65;;
42294;SDS011;27947;47.556;18.718;2023-04-30T04:24:13;22.45;;;15.45;;
42294;SDS011;27947;47.556;18.718;2023-04-30T04:26:38;23.92;;;16.38;;
42294;SDS011;27947;47.556;18.718;2023-04-30T04:29:03;17.95;;;14.65;;
42294;SDS011;27947;47.556;18.718;2023-04-30T04:31:29;21.80;;;14.63;;
42294;SDS011;27947;47.556;18.718;2023-04-30T04:33:58;19.75;;;15.18;;
42294;SDS011;27947;47.556;18.718;2023-04-30T04:36:25;18.67;;;15.93;;
42294;SDS011;27947;47.556;18.718;2023-04-30T04:38:52;23.30;;;16.30;;
42294;SDS011;27947;47.556;18.718;2023-04-30T04:41:17;20.23;;;14.63;;
42294;SDS011;27947;47.556;18.718;2023-04-30T04:43:43;20.50;;;14.48;;
42294;SDS011;27947;47.556;18.718;2023-04-30T04:46:08;19.95;;;15.10;;
42294;SDS011;27947;47.556;18.718;2023-04-30T04:48:33;22.90;;;15.70;;
42294;SDS011;27947;47.556;18.718;2023-04-30T04:50:59;18.10;;;14.75;;
42294;SDS011;27947;47.556;18.718;2023-04-30T04:53:25;18.25;;;14.45;;
42294;SDS011;27947;47.556;18.718;2023-04-30T04:55:50;21.70;;;14.68;;
42294;SDS011;27947;47.556;18.718;2023-04-30T04:58:16;13.55;;;11.88;;
42294;SDS011;27947;47.556;18.718;2023-04-30T05:00:42;15.85;;;12.98;;
42294;SDS011;27947;47.556;18.718;2023-04-30T05:03:07;16.10;;;12.25;;
42294;SDS011;27947;47.556;18.718;2023-04-30T05:05:33;15.88;;;11.57;;
42294;SDS011;27947;47.556;18.718;2023-04-30T05:07:58;12.82;;;10.68;;
42294;SDS011;27947;47.556;18.718;2023-04-30T05:10:24;12.75;;;10.45;;
42294;SDS011;27947;47.556;18.718;2023-04-30T05:12:49;14.35;;;11.25;;
42294;SDS011;27947;47.556;18.718;2023-04-30T05:15:15;11.90;;;10.35;;
42294;SDS011;27947;47.556;18.718;2023-04-30T05:17:40;13.98;;;10.98;;
42294;SDS011;27947;47.556;18.718;2023-04-30T05:20:06;13.10;;;10.27;;
42294;SDS011;27947;47.556;18.718;2023-04-30T05:22:31;14.40;;;10.48;;
42294;SDS011;27947;47.556;18.718;2023-04-30T05:24:57;13.75;;;10.63;;
42294;SDS011;27947;47.556;18.718;2023-04-30T05:27:22;13.98;;;10.93;;
42294;SDS011;27947;47.556;18.718;2023-04-30T05:29:48;14.25;;;10.60;;
42294;SDS011;27947;47.556;18.718;2023-04-30T05:32:13;12.40;;;10.43;;
42294;SDS011;27947;47.556;18.718;2023-04-30T05:34:38;14.80;;;11.20;;
42294;SDS011;27947;47.556;18.718;2023-04-30T05:37:04;12.35;;;9.82;;
42294;SDS011;27947;47.556;18.718;2023-04-30T05:39:29;11.85;;;10.60;;
42294;SDS011;27947;47.556;18.718;2023-04-30T05:41:54;12.02;;;9.52;;
42294;SDS011;27947;47.556;18.718;2023-04-30T05:44:20;12.20;;;9.75;;
42294;SDS011;27947;47.556;18.718;2023-04-30T05:46:46;12.70;;;9.73;;
42294;SDS011;27947;47.556;18.718;2023-04-30T05:49:11;13.98;;;8.85;;
42294;SDS011;27947;47.556;18.718;2023-04-30T05:51:36;11.43;;;8.50;;
42294;SDS011;27947;47.556;18.718;2023-04-30T05:54:02;10.30;;;8.38;;
42294;SDS011;27947;47.556;18.718;2023-04-30T05:56:27;12.18;;;9.30;;
42294;SDS011;27947;47.556;18.718;2023-04-30T05:58:53;12.32;;;9.57;;
42294;SDS011;27947;47.556;18.718;2023-04-30T06:01:19;12.40;;;9.52;;
42294;SDS011;27947;47.556;18.718;2023-04-30T06:03:44;11.40;;;9.38;;
42294;SDS011;27947;47.556;18.718;2023-04-30T06:06:10;11.55;;;9.10;;
42294;SDS011;27947;47.556;18.718;2023-04-30T06:08:35;10.30;;;9.20;;
42294;SDS011;27947;47.556;18.718;2023-04-30T06:11:01;9.93;;;8.68;;
42294;SDS011;27947;47.556;18.718;2023-04-30T06:13:30;11.35;;;9.20;;
42294;SDS011;27947;47.556;18.718;2023-04-30T06:15:55;14.23;;;8.45;;
42294;SDS011;27947;47.556;18.718;2023-04-30T06:18:20;12.07;;;9.13;;
42294;SDS011;27947;47.556;18.718;2023-04-30T06:20:46;12.73;;;8.77;;
42294;SDS011;27947;47.556;18.718;2023-04-30T06:23:11;11.63;;;8.52;;
42294;SDS011;27947;47.556;18.718;2023-04-30T06:25:36;11.07;;;8.80;;
42294;SDS011;27947;47.556;18.718;2023-04-30T06:28:03;9.50;;;8.05;;
42294;SDS011;27947;47.556;18.718;2023-04-30T06:30:30;8.40;;;7.38;;
42294;SDS011;27947;47.556;18.718;2023-04-30T06:32:55;11.15;;;7.20;;
42294;SDS011;27947;47.556;18.718;2023-04-30T06:35:21;10.52;;;7.15;;
42294;SDS011;27947;47.556;18.718;2023-04-30T06:37:46;8.55;;;7.05;;
42294;SDS011;27947;47.556;18.718;2023-04-30T06:40:11;15.32;;;7.38;;
42294;SDS011;27947;47.556;18.718;2023-04-30T06:42:37;8.98;;;7.15;;
42294;SDS011;27947;47.556;18.718;2023-04-30T06:45:03;9.75;;;7.15;;
42294;SDS011;27947;47.556;18.718;2023-04-30T06:47:30;8.15;;;6.95;;
42294;SDS011;27947;47.556;18.718;2023-04-30T06:50:00;8.40;;;6.32;;
42294;SDS011;27947;47.556;18.718;2023-04-30T06:52:26;8.38;;;6.38;;
42294;SDS011;27947;47.556;18.718;2023-04-30T06:54:51;15.50;;;6.90;;
42294;SDS011;27947;47.556;18.718;2023-04-30T06:57:16;13.77;;;7.57;;
42294;SDS011;27947;47.556;18.718;2023-04-30T06:59:42;10.15;;;7.18;;
42294;SDS011;27947;47.556;18.718;2023-04-30T07:02:08;8.52;;;7.03;;
42294;SDS011;27947;47.556;18.718;2023-04-30T07:04:33;9.55;;;7.18;;
42294;SDS011;27947;47.556;18.718;2023-04-30T07:06:59;9.82;;;6.63;;
42294;SDS011;27947;47.556;18.718;2023-04-30T07:09:26;9.30;;;6.47;;
42294;SDS011;27947;47.556;18.718;2023-04-30T07:11:51;7.57;;;6.05;;
42294;SDS011;27947;47.556;18.718;2023-04-30T07:14:17;8.18;;;6.18;;
42294;SDS011;27947;47.556;18.718;2023-04-30T07:16:42;7.30;;;5.90;;
42294;SDS011;27947;47.556;18.718;2023-04-30T07:19:07;8.48;;;6.50;;
42294;SDS011;27947;47.556;18.718;2023-04-30T07:21:33;9.00;;;6.03;;
42294;SDS011;27947;47.556;18.718;2023-04-30T07:23:58;6.80;;;5.30;;
42294;SDS011;27947;47.556;18.718;2023-04-30T07:26:23;13.38;;;5.57;;
42294;SDS011;27947;47.556;18.718;2023-04-30T07:28:50;6.85;;;5.93;;
42294;SDS011;27947;47.556;18.718;2023-04-30T07:31:16;7.60;;;5.75;;
42294;SDS011;27947;47.556;18.718;2023-04-30T07:33:41;7.60;;;5.82;;
42294;SDS011;27947;47.556;18.718;2023-04-30T07:36:06;7.45;;;5.35;;
42294;SDS011;27947;47.556;18.718;2023-04-30T07:38:32;7.88;;;6.00;;
42294;SDS011;27947;47.556;18.718;2023-04-30T07:40:57;7.32;;;5.80;;
42294;SDS011;27947;47.556;18.718;2023-04-30T07:43:22;7.22;;;5.68;;
42294;SDS011;27947;47.556;18.718;2023-04-30T07:45:48;7.22;;;5.70;;
42294;SDS011;27947;47.556;18.718;2023-04-30T07:48:15;6.85;;;5.10;;
42294;SDS011;27947;47.556;18.718;2023-04-30T07:50:41;10.60;;;5.82;;
42294;SDS011;27947;47.556;18.718;2023-04-30T07:53:06;9.10;;;5.90;;
42294;SDS011;27947;47.556;18.718;2023-04-30T07:55:33;9.07;;;5.38;;
42294;SDS011;27947;47.556;18.718;2023-04-30T07:57:59;6.10;;;4.93;;
42294;SDS011;27947;47.556;18.718;2023-04-30T08:00:24;5.95;;;5.30;;
42294;SDS011;27947;47.556;18.718;2023-04-30T08:02:50;6.28;;;4.95;;
42294;SDS011;27947;47.556;18.718;2023-04-30T08:05:15;5.63;;;4.45;;
42294;SDS011;27947;47.556;18.718;2023-04-30T08:07:41;5.97;;;4.55;;
42294;SDS011;27947;47.556;18.718;2023-04-30T08:10:08;5.78;;;4.45;;
42294;SDS011;27947;47.556;18.718;2023-04-30T08:12:36;6.15;;;4.75;;
42294;SDS011;27947;47.556;18.718;2023-04-30T08:15:02;5.53;;;4.20;;
42294;SDS011;27947;47.556;18.718;2023-04-30T08:17:29;4.85;;;3.58;;
42294;SDS011;27947;47.556;18.718;2023-04-30T08:19:54;4.40;;;3.35;;
42294;SDS011;27947;47.556;18.718;2023-04-30T08:22:20;4.75;;;3.42;;
42294;SDS011;27947;47.556;18.718;2023-04-30T08:24:45;5.10;;;3.17;;
42294;SDS011;27947;47.556;18.718;2023-04-30T08:27:10;5.32;;;3.35;;
42294;SDS011;27947;47.556;18.718;2023-04-30T08:29:36;4.50;;;3.63;;
42294;SDS011;27947;47.556;18.718;2023-04-30T08:32:01;4.93;;;3.70;;
42294;SDS011;27947;47.556;18.718;2023-04-30T08:34:28;8.20;;;4.10;;
42294;SDS011;27947;47.556;18.718;2023-04-30T08:36:53;4.80;;;4.30;;
42294;SDS011;27947;47.556;18.718;2023-04-30T08:39:18;5.38;;;3.92;;
42294;SDS011;27947;47.556;18.718;2023-04-30T08:41:44;10.35;;;3.58;;
42294;SDS011;27947;47.556;18.718;2023-04-30T08:44:10;36.90;;;5.50;;
42294;SDS011;27947;47.556;18.718;2023-04-30T08:46:37;5.85;;;3.97;;
42294;SDS011;27947;47.556;18.718;2023-04-30T08:49:03;6.57;;;3.90;;
42294;SDS011;27947;47.556;18.718;2023-04-30T08:51:29;5.90;;;3.95;;
42294;SDS011;27947;47.556;18.718;2023-04-30T08:53:56;6.25;;;4.22;;
42294;SDS011;27947;47.556;18.718;2023-04-30T08:56:21;6.28;;;4.15;;
42294;SDS011;27947;47.556;18.718;2023-04-30T08:58:47;12.63;;;4.18;;
42294;SDS011;27947;47.556;18.718;2023-04-30T09:01:12;4.20;;;3.30;;
42294;SDS011;27947;47.556;18.718;2023-04-30T09:03:38;4.18;;;3.40;;
42294;SDS011;27947;47.556;18.718;2023-04-30T09:06:03;4.38;;;3.20;;
42294;SDS011;27947;47.556;18.718;2023-04-30T09:08:41;4.50;;;3.25;;
42294;SDS011;27947;47.556;18.718;2023-04-30T09:11:20;4.55;;;3.35;;
42294;SDS011;27947;47.556;18.718;2023-04-30T09:13:47;3.72;;;2.95;;
42294;SDS011;27947;47.556;18.718;2023-04-30T09:16:13;6.05;;;3.00;;
42294;SDS011;27947;47.556;18.718;2023-04-30T09:18:38;3.92;;;3.05;;
42294;SDS011;27947;47.556;18.718;2023-04-30T09:21:05;3.22;;;2.60;;
42294;SDS011;27947;47.556;18.718;2023-04-30T09:23:33;5.57;;;3.03;;
42294;SDS011;27947;47.556;18.718;2023-04-30T09:25:58;4.45;;;2.75;;
42294;SDS011;27947;47.556;18.718;2023-04-30T09:28:25;5.40;;;2.65;;
42294;SDS011;27947;47.556;18.718;2023-04-30T09:30:53;8.35;;;2.90;;
42294;SDS011;27947;47.556;18.718;2023-04-30T09:33:19;3.58;;;3.05;;
42294;SDS011;27947;47.556;18.718;2023-04-30T09:35:45;5.70;;;3.42;;
42294;SDS011;27947;47.556;18.718;2023-04-30T09:38:29;10.82;;;3.97;;
42294;SDS011;27947;47.556;18.718;2023-04-30T09:40:56;5.38;;;3.30;;
42294;SDS011;27947;47.556;18.718;2023-04-30T09:43:22;3.63;;;2.85;;
42294;SDS011;27947;47.556;18.718;2023-04-30T09:45:48;6.97;;;2.72;;
42294;SDS011;27947;47.556;18.718;2023-04-30T09:48:22;3.67;;;2.70;;
42294;SDS011;27947;47.556;18.718;2023-04-30T09:50:48;13.90;;;3.20;;
42294;SDS011;27947;47.556;18.718;2023-04-30T09:53:14;11.20;;;3.20;;
42294;SDS011;27947;47.556;18.718;2023-04-30T09:55:42;3.03;;;2.40;;
42294;SDS011;27947;47.556;18.718;2023-04-30T09:58:09;7.00;;;3.38;;
42294;SDS011;27947;47.556;18.718;2023-04-30T10:00:35;3.97;;;2.38;;
42294;SDS011;27947;47.556;18.718;2023-04-30T10:03:04;3.65;;;2.20;;
42294;SDS011;27947;47.556;18.718;2023-04-30T10:05:31;2.47;;;2.10;;
42294;SDS011;27947;47.556;18.718;2023-04-30T10:07:58;3.53;;;2.03;;
42294;SDS011;27947;47.556;18.718;2023-04-30T10:10:23;2.42;;;1.70;;
42294;SDS011;27947;47.556;18.718;2023-04-30T10:12:51;3.72;;;1.90;;
42294;SDS011;27947;47.556;18.718;2023-04-30T10:15:24;2.13;;;1.55;;
42294;SDS011;27947;47.556;18.718;2023-04-30T10:17:53;3.92;;;1.63;;
42294;SDS011;27947;47.556;18.718;2023-04-30T10:20:21;5.60;;;1.73;;
42294;SDS011;27947;47.556;18.718;2023-04-30T10:22:47;2.33;;;1.60;;
42294;SDS011;27947;47.556;18.718;2023-04-30T10:25:13;4.05;;;1.80;;
42294;SDS011;27947;47.556;18.718;2023-04-30T10:27:38;3.20;;;2.00;;
42294;SDS011;27947;47.556;18.718;2023-04-30T10:30:05;32.55;;;3.50;;
42294;SDS011;27947;47.556;18.718;2023-04-30T10:32:32;8.35;;;1.98;;
42294;SDS011;27947;47.556;18.718;2023-04-30T10:35:05;135.30;;;9.47;;
42294;SDS011;27947;47.556;18.718;2023-04-30T10:37:35;6.32;;;1.75;;
42294;SDS011;27947;47.556;18.718;2023-04-30T10:40:04;5.40;;;1.92;;
42294;SDS011;27947;47.556;18.718;2023-04-30T10:42:30;14.65;;;2.35;;
42294;SDS011;27947;47.556;18.718;2023-04-30T10:44:56;1.85;;;1.63;;
42294;SDS011;27947;47.556;18.718;2023-04-30T10:47:26;6.72;;;2.10;;
42294;SDS011;27947;47.556;18.718;2023-04-30T10:50:00;3.87;;;2.10;;
42294;SDS011;27947;47.556;18.718;2023-04-30T10:52:26;6.43;;;2.63;;
42294;SDS011;27947;47.556;18.718;2023-04-30T10:54:52;7.00;;;2.45;;
42294;SDS011;27947;47.556;18.718;2023-04-30T10:57:18;3.67;;;1.90;;
42294;SDS011;27947;47.556;18.718;2023-04-30T11:02:43;4.05;;;1.70;;
42294;SDS011;27947;47.556;18.718;2023-04-30T11:05:09;5.05;;;2.55;;
42294;SDS011;27947;47.556;18.718;2023-04-30T11:07:48;5.50;;;1.70;;
42294;SDS011;27947;47.556;18.718;2023-04-30T11:10:14;3.25;;;1.60;;
42294;SDS011;27947;47.556;18.718;2023-04-30T11:12:39;2.70;;;1.30;;
42294;SDS011;27947;47.556;18.718;2023-04-30T11:17:31;3.85;;;1.60;;
42294;SDS011;27947;47.556;18.718;2023-04-30T11:19:58;1.20;;;1.10;;
42294;SDS011;27947;47.556;18.718;2023-04-30T11:22:25;3.13;;;1.50;;
42294;SDS011;27947;47.556;18.718;2023-04-30T11:27:25;3.75;;;1.27;;
42294;SDS011;27947;47.556;18.718;2023-04-30T11:29:51;1.23;;;1.10;;
42294;SDS011;27947;47.556;18.718;2023-04-30T11:32:22;5.10;;;1.50;;
42294;SDS011;27947;47.556;18.718;2023-04-30T11:34:47;2.13;;;1.30;;
42294;SDS011;27947;47.556;18.718;2023-04-30T11:37:20;1.98;;;1.20;;
42294;SDS011;27947;47.556;18.718;2023-04-30T11:39:46;2.75;;;1.20;;
42294;SDS011;27947;47.556;18.718;2023-04-30T11:42:15;5.30;;;1.50;;
42294;SDS011;27947;47.556;18.718;2023-04-30T11:44:41;1.58;;;1.20;;
42294;SDS011;27947;47.556;18.718;2023-04-30T11:47:06;2.45;;;1.63;;
42294;SDS011;27947;47.556;18.718;2023-04-30T11:49:31;2.90;;;1.30;;
42294;SDS011;27947;47.556;18.718;2023-04-30T11:51:57;2.25;;;1.05;;
42294;SDS011;27947;47.556;18.718;2023-04-30T11:54:23;2.33;;;1.15;;
42294;SDS011;27947;47.556;18.718;2023-04-30T11:56:48;1.17;;;1.05;;
42294;SDS011;27947;47.556;18.718;2023-04-30T11:59:14;2.90;;;1.30;;
42294;SDS011;27947;47.556;18.718;2023-04-30T12:01:40;2.10;;;1.10;;
42294;SDS011;27947;47.556;18.718;2023-04-30T12:04:05;1.85;;;1.30;;
42294;SDS011;27947;47.556;18.718;2023-04-30T12:06:31;4.15;;;1.50;;
42294;SDS011;27947;47.556;18.718;2023-04-30T12:09:00;2.25;;;1.10;;
42294;SDS011;27947;47.556;18.718;2023-04-30T12:11:28;1.73;;;1.00;;
42294;SDS011;27947;47.556;18.718;2023-04-30T12:14:04;2.95;;;1.27;;
42294;SDS011;27947;47.556;18.718;2023-04-30T12:16:48;4.68;;;1.30;;
42294;SDS011;27947;47.556;18.718;2023-04-30T12:19:14;1.85;;;1.20;;
42294;SDS011;27947;47.556;18.718;2023-04-30T12:21:41;5.88;;;1.70;;
42294;SDS011;27947;47.556;18.718;2023-04-30T12:24:10;14.23;;;1.98;;
42294;SDS011;27947;47.556;18.718;2023-04-30T12:26:35;5.28;;;1.65;;
42294;SDS011;27947;47.556;18.718;2023-04-30T12:29:21;6.60;;;1.33;;
42294;SDS011;27947;47.556;18.718;2023-04-30T12:31:47;1.83;;;1.10;;
42294;SDS011;27947;47.556;18.718;2023-04-30T12:34:13;19.70;;;2.17;;
42294;SDS011;27947;47.556;18.718;2023-04-30T12:36:39;5.97;;;1.13;;
42294;SDS011;27947;47.556;18.718;2023-04-30T12:39:09;3.70;;;1.13;;
42294;SDS011;27947;47.556;18.718;2023-04-30T12:44:16;1.50;;;1.00;;
42294;SDS011;27947;47.556;18.718;2023-04-30T12:46:41;11.38;;;1.40;;
42294;SDS011;27947;47.556;18.718;2023-04-30T12:49:07;1.88;;;0.88;;
42294;SDS011;27947;47.556;18.718;2023-04-30T12:51:34;3.80;;;1.20;;
42294;SDS011;27947;47.556;18.718;2023-04-30T12:53:59;1.38;;;0.88;;
42294;SDS011;27947;47.556;18.718;2023-04-30T12:56:24;1.90;;;1.08;;
42294;SDS011;27947;47.556;18.718;2023-04-30T12:58:50;0.88;;;0.77;;
42294;SDS011;27947;47.556;18.718;2023-04-30T13:01:16;3.90;;;1.13;;
42294;SDS011;27947;47.556;18.718;2023-04-30T13:03:42;8.57;;;1.25;;
42294;SDS011;27947;47.556;18.718;2023-04-30T13:06:07;4.32;;;0.90;;
42294;SDS011;27947;47.556;18.718;2023-04-30T13:08:34;5.10;;;1.02;;
42294;SDS011;27947;47.556;18.718;2023-04-30T13:11:00;0.90;;;0.80;;
42294;SDS011;27947;47.556;18.718;2023-04-30T13:13:25;3.60;;;1.00;;
42294;SDS011;27947;47.556;18.718;2023-04-30T13:15:50;1.27;;;0.80;;
42294;SDS011;27947;47.556;18.718;2023-04-30T13:18:16;1.88;;;0.63;;
42294;SDS011;27947;47.556;18.718;2023-04-30T13:20:42;0.90;;;0.80;;
42294;SDS011;27947;47.556;18.718;2023-04-30T13:23:10;1.10;;;0.90;;
42294;SDS011;27947;47.556;18.718;2023-04-30T13:25:38;2.15;;;1.10;;
42294;SDS011;27947;47.556;18.718;2023-04-30T13:28:04;1.75;;;1.08;;
42294;SDS011;27947;47.556;18.718;2023-04-30T13:30:29;1.42;;;0.80;;
42294;SDS011;27947;47.556;18.718;2023-04-30T13:32:55;1.17;;;0.93;;
42294;SDS011;27947;47.556;18.718;2023-04-30T13:35:20;2.97;;;0.88;;
42294;SDS011;27947;47.556;18.718;2023-04-30T13:37:46;1.77;;;0.90;;
42294;SDS011;27947;47.556;18.718;2023-04-30T13:40:13;4.30;;;0.90;;
42294;SDS011;27947;47.556;18.718;2023-04-30T13:42:39;5.60;;;0.98;;
42294;SDS011;27947;47.556;18.718;2023-04-30T13:45:05;2.00;;;1.25;;
42294;SDS011;27947;47.556;18.718;2023-04-30T13:47:31;1.25;;;0.80;;
42294;SDS011;27947;47.556;18.718;2023-04-30T13:49:56;3.70;;;1.20;;
42294;SDS011;27947;47.556;18.718;2023-04-30T13:52:22;2.33;;;0.80;;
42294;SDS011;27947;47.556;18.718;2023-04-30T13:54:47;2.00;;;0.90;;
42294;SDS011;27947;47.556;18.718;2023-04-30T13:57:12;1.88;;;0.90;;
42294;SDS011;27947;47.556;18.718;2023-04-30T13:59:38;1.00;;;0.85;;
42294;SDS011;27947;47.556;18.718;2023-04-30T14:02:03;3.53;;;1.10;;
42294;SDS011;27947;47.556;18.718;2023-04-30T14:04:29;1.73;;;1.00;;
42294;SDS011;27947;47.556;18.718;2023-04-30T14:06:55;1.65;;;1.00;;
42294;SDS011;27947;47.556;18.718;2023-04-30T14:09:21;2.05;;;1.23;;
42294;SDS011;27947;47.556;18.718;2023-04-30T14:11:46;3.40;;;1.10;;
42294;SDS011;27947;47.556;18.718;2023-04-30T14:14:11;2.42;;;1.13;;
42294;SDS011;27947;47.556;18.718;2023-04-30T14:16:37;10.27;;;1.85;;
42294;SDS011;27947;47.556;18.718;2023-04-30T14:19:03;2.30;;;1.05;;
42294;SDS011;27947;47.556;18.718;2023-04-30T14:21:28;3.33;;;1.23;;
42294;SDS011;27947;47.556;18.718;2023-04-30T14:23:54;3.75;;;1.38;;
42294;SDS011;27947;47.556;18.718;2023-04-30T14:26:19;4.10;;;1.35;;
42294;SDS011;27947;47.556;18.718;2023-04-30T14:28:45;4.00;;;1.10;;
42294;SDS011;27947;47.556;18.718;2023-04-30T14:31:11;2.42;;;1.38;;
42294;SDS011;27947;47.556;18.718;2023-04-30T14:33:36;3.35;;;1.20;;
42294;SDS011;27947;47.556;18.718;2023-04-30T14:36:02;1.83;;;1.30;;
42294;SDS011;27947;47.556;18.718;2023-04-30T14:38:27;2.53;;;1.25;;
42294;SDS011;27947;47.556;18.718;2023-04-30T14:40:53;1.73;;;1.05;;
42294;SDS011;27947;47.556;18.718;2023-04-30T14:43:18;2.03;;;1.15;;
42294;SDS011;27947;47.556;18.718;2023-04-30T14:45:44;1.63;;;1.33;;
42294;SDS011;27947;47.556;18.718;2023-04-30T14:48:10;4.03;;;1.27;;
42294;SDS011;27947;47.556;18.718;2023-04-30T14:50:35;4.25;;;1.50;;
42294;SDS011;27947;47.556;18.718;2023-04-30T14:53:01;1.75;;;1.20;;
42294;SDS011;27947;47.556;18.718;2023-04-30T14:55:28;2.45;;;1.23;;